createdAt,value
2022-11-04T00:00:30.227Z,12.20
2022-11-04T00:02:59.798Z,12.10
2022-11-04T00:05:27.867Z,12.10
2022-11-04T00:08:13.288Z,12.20
2022-11-04T00:10:58.583Z,12.20
2022-11-04T00:13:26.590Z,12.00
2022-11-04T00:16:12.169Z,12.00
2022-11-04T00:18:41.470Z,11.80
2022-11-04T00:21:27.080Z,11.90
2022-11-04T00:24:12.394Z,11.90
2022-11-04T00:26:57.849Z,12.00
2022-11-04T00:29:26.115Z,12.10
2022-11-04T00:32:11.813Z,12.10
2022-11-04T00:34:41.095Z,12.00
2022-11-04T00:37:09.051Z,11.90
2022-11-04T00:39:37.097Z,12.00
2022-11-04T00:42:05.168Z,12.00
2022-11-04T00:44:33.189Z,12.00
2022-11-04T00:47:01.178Z,11.90
2022-11-04T00:49:29.305Z,11.90
2022-11-04T00:51:58.634Z,12.00
2022-11-04T00:54:26.716Z,12.10
2022-11-04T00:56:55.034Z,11.80
2022-11-04T00:59:23.132Z,11.90
2022-11-04T01:01:51.293Z,11.90
2022-11-04T01:04:19.371Z,11.90
2022-11-04T01:06:47.321Z,12.10
2022-11-04T01:09:16.677Z,12.10
2022-11-04T01:11:44.674Z,12.00
2022-11-04T01:14:13.302Z,11.90
2022-11-04T01:16:41.454Z,11.90
2022-11-04T01:19:09.457Z,11.90
2022-11-04T01:21:37.481Z,11.80
2022-11-04T01:24:06.651Z,11.90
2022-11-04T01:26:36.418Z,11.60
2022-11-04T01:29:04.441Z,11.40
2022-11-04T01:31:33.139Z,11.20
2022-11-04T01:34:01.384Z,11.20
2022-11-04T01:36:29.574Z,11.30
2022-11-04T01:38:58.403Z,11.40
2022-11-04T01:41:29.487Z,11.50
2022-11-04T01:44:01.492Z,11.50
2022-11-04T01:46:45.008Z,11.50
2022-11-04T01:49:25.487Z,10.90
2022-11-04T01:51:58.148Z,11.00
2022-11-04T01:54:26.462Z,11.00
2022-11-04T01:56:56.087Z,11.00
2022-11-04T01:59:30.730Z,10.90
2022-11-04T02:01:58.791Z,10.80
2022-11-04T02:04:27.085Z,10.50
2022-11-04T02:06:58.190Z,10.40
2022-11-04T02:09:31.171Z,10.40
2022-11-04T02:12:17.130Z,10.20
2022-11-04T02:14:49.444Z,10.10
2022-11-04T02:17:36.881Z,10.30
2022-11-04T02:20:28.378Z,10.10
2022-11-04T02:24:00.242Z,10.10
2022-11-04T02:27:08.423Z,9.90
2022-11-04T02:29:56.597Z,9.90
2022-11-04T02:32:35.462Z,10.00
2022-11-04T02:35:09.656Z,9.80
2022-11-04T02:37:49.124Z,9.80
2022-11-04T02:40:28.976Z,9.90
2022-11-04T02:43:03.110Z,9.70
2022-11-04T02:45:39.933Z,9.80
2022-11-04T02:48:15.278Z,9.90
2022-11-04T02:50:48.234Z,9.70
2022-11-04T02:53:21.775Z,9.80
2022-11-04T02:55:53.562Z,9.70
2022-11-04T02:58:34.396Z,9.70
2022-11-04T03:01:06.268Z,9.70
2022-11-04T03:03:40.874Z,9.60
2022-11-04T03:06:11.492Z,9.60
2022-11-04T03:08:42.545Z,9.80
2022-11-04T03:11:15.962Z,9.80
2022-11-04T03:13:50.703Z,9.60
2022-11-04T03:16:25.800Z,9.50
2022-11-04T03:19:03.463Z,9.50
2022-11-04T03:21:36.520Z,9.70
2022-11-04T03:24:06.367Z,9.60
2022-11-04T03:26:42.979Z,9.50
2022-11-04T03:29:23.638Z,9.20
2022-11-04T03:32:05.445Z,9.30
2022-11-04T03:34:33.955Z,9.50
2022-11-04T03:37:02.514Z,9.40
2022-11-04T03:39:30.956Z,9.30
2022-11-04T03:42:19.888Z,9.30
2022-11-04T03:44:50.392Z,9.50
2022-11-04T03:47:23.481Z,9.30
2022-11-04T03:49:53.693Z,9.30
2022-11-04T03:52:22.415Z,9.20
2022-11-04T03:54:50.477Z,9.10
2022-11-04T03:57:36.815Z,9.20
2022-11-04T04:00:12.402Z,9.10
2022-11-04T04:02:56.804Z,9.20
2022-11-04T04:05:29.772Z,9.00
2022-11-04T04:08:13.437Z,9.00
2022-11-04T04:10:49.818Z,9.10
2022-11-04T04:13:27.734Z,8.90
2022-11-04T04:16:00.777Z,8.90
2022-11-04T04:18:37.833Z,9.00
2022-11-04T04:21:11.032Z,8.80
2022-11-04T04:23:59.028Z,8.80
2022-11-04T04:26:45.601Z,8.90
2022-11-04T04:29:14.990Z,8.80
2022-11-04T04:31:52.529Z,8.70
2022-11-04T04:34:25.154Z,8.80
2022-11-04T04:37:02.939Z,8.70
2022-11-04T04:39:57.951Z,8.60
2022-11-04T04:42:43.920Z,8.50
2022-11-04T04:45:21.830Z,8.50
2022-11-04T04:47:49.919Z,8.50
2022-11-04T04:50:21.845Z,8.60
2022-11-04T04:52:53.359Z,8.70
2022-11-04T04:55:21.329Z,8.80
2022-11-04T04:57:49.448Z,8.90
2022-11-04T05:00:20.510Z,8.60
2022-11-04T05:02:49.348Z,8.60
2022-11-04T05:05:19.726Z,8.80
2022-11-04T05:07:47.920Z,8.70
2022-11-04T05:10:18.301Z,8.60
2022-11-04T05:13:00.564Z,8.50
2022-11-04T05:15:30.351Z,8.50
2022-11-04T05:18:00.598Z,8.40
2022-11-04T05:20:33.942Z,8.40
2022-11-04T05:23:01.914Z,8.50
2022-11-04T05:25:30.037Z,8.50
2022-11-04T05:28:01.964Z,8.60
2022-11-04T05:30:30.393Z,8.50
2022-11-04T05:33:01.780Z,8.50
2022-11-04T05:35:34.822Z,8.60
2022-11-04T05:38:02.859Z,8.60
2022-11-04T05:40:30.891Z,8.50
2022-11-04T05:43:00.171Z,8.40
2022-11-04T05:45:28.879Z,8.40
2022-11-04T05:48:01.368Z,8.40
2022-11-04T05:50:30.517Z,8.40
2022-11-04T05:53:00.314Z,8.30
2022-11-04T05:55:28.894Z,8.40
2022-11-04T05:57:57.803Z,8.40
2022-11-04T06:00:26.721Z,8.50
2022-11-04T06:02:57.129Z,8.70
2022-11-04T06:05:25.429Z,8.70
2022-11-04T06:07:53.519Z,8.80
2022-11-04T06:10:23.009Z,8.90
2022-11-04T06:12:50.992Z,8.80
2022-11-04T06:15:19.144Z,8.80
2022-11-04T06:17:47.121Z,8.80
2022-11-04T06:20:15.070Z,8.90
2022-11-04T06:22:43.031Z,9.00
2022-11-04T06:25:11.411Z,9.00
2022-11-04T06:27:41.251Z,9.00
2022-11-04T06:30:11.589Z,8.80
2022-11-04T06:32:39.612Z,8.70
2022-11-04T06:35:11.507Z,8.70
2022-11-04T06:37:39.574Z,8.60
2022-11-04T06:40:09.363Z,8.90
2022-11-04T06:42:37.399Z,8.80
2022-11-04T06:45:08.166Z,9.00
2022-11-04T06:47:36.258Z,9.00
2022-11-04T06:50:05.261Z,9.00
2022-11-04T06:52:36.808Z,9.00
2022-11-04T06:55:09.804Z,9.00
2022-11-04T06:57:40.648Z,9.00
2022-11-04T07:00:12.234Z,9.10
2022-11-04T07:02:40.274Z,9.30
2022-11-04T07:05:09.472Z,9.30
2022-11-04T07:07:37.479Z,9.30
2022-11-04T07:10:06.620Z,9.20
2022-11-04T07:12:34.620Z,9.00
2022-11-04T07:15:02.665Z,8.80
2022-11-04T07:17:32.100Z,8.60
2022-11-04T07:20:00.235Z,8.70
2022-11-04T07:22:28.237Z,8.50
2022-11-04T07:24:56.203Z,8.50
2022-11-04T07:27:24.391Z,8.70
2022-11-04T07:29:52.373Z,8.70
2022-11-04T07:32:20.428Z,9.00
2022-11-04T07:34:49.754Z,9.20
2022-11-04T07:37:17.743Z,9.30
2022-11-04T07:39:45.745Z,9.20
2022-11-04T07:42:13.747Z,9.20
2022-11-04T07:44:41.736Z,9.10
2022-11-04T07:47:09.728Z,9.20
2022-11-04T07:49:37.915Z,9.20
2022-11-04T07:52:07.954Z,9.30
2022-11-04T07:54:36.609Z,9.30
2022-11-04T07:57:04.900Z,9.30
2022-11-04T07:59:33.663Z,9.30
2022-11-04T08:02:01.851Z,9.30
2022-11-04T08:04:30.221Z,9.40
2022-11-04T08:06:58.209Z,9.50
2022-11-04T08:09:27.651Z,9.50
2022-11-04T08:11:55.786Z,9.50
2022-11-04T08:14:23.775Z,9.50
2022-11-04T08:16:51.988Z,9.60
2022-11-04T08:19:20.066Z,9.60
2022-11-04T08:21:48.338Z,9.60
2022-11-04T08:24:16.474Z,9.70
2022-11-04T08:26:46.265Z,9.70
2022-11-04T08:29:14.534Z,9.80
2022-11-04T08:31:42.546Z,9.80
2022-11-04T08:34:10.771Z,9.90
2022-11-04T08:36:41.492Z,9.90
2022-11-04T08:39:11.177Z,10.00
2022-11-04T08:41:42.007Z,10.00
2022-11-04T08:44:12.765Z,10.10
2022-11-04T08:46:42.747Z,10.20
2022-11-04T08:49:13.839Z,10.20
2022-11-04T08:51:49.395Z,10.30
2022-11-04T08:54:17.945Z,10.30
2022-11-04T08:56:47.295Z,10.40
2022-11-04T08:59:17.230Z,10.40
2022-11-04T09:01:46.266Z,10.30
2022-11-04T09:04:14.411Z,10.30
2022-11-04T09:06:46.103Z,10.40
2022-11-04T09:09:17.295Z,10.40
2022-11-04T09:11:47.056Z,10.40
2022-11-04T09:14:17.734Z,10.40
2022-11-04T09:16:45.778Z,10.50
2022-11-04T09:19:13.749Z,10.70
2022-11-04T09:21:41.906Z,10.50
2022-11-04T09:24:11.503Z,10.70
2022-11-04T09:26:39.774Z,10.70
2022-11-04T09:29:09.688Z,10.80
2022-11-04T09:31:39.832Z,10.80
2022-11-04T09:34:08.893Z,10.70
2022-11-04T09:36:36.910Z,10.70
2022-11-04T09:39:05.669Z,10.70
2022-11-04T09:42:01.398Z,10.80
2022-11-04T09:45:06.863Z,10.80
2022-11-04T09:47:35.314Z,10.80
2022-11-04T09:50:04.835Z,10.90
2022-11-04T09:52:38.383Z,11.10
2022-11-04T09:55:15.858Z,11.10
2022-11-04T09:57:45.212Z,11.10
2022-11-04T10:00:17.254Z,11.00
2022-11-04T10:03:04.803Z,11.00
2022-11-04T10:05:51.310Z,11.10
2022-11-04T10:08:46.573Z,11.30
2022-11-04T10:11:23.007Z,11.30
2022-11-04T10:14:19.687Z,11.20
2022-11-04T10:17:05.372Z,11.20
2022-11-04T10:19:49.041Z,11.20
2022-11-04T10:22:29.689Z,11.20
2022-11-04T10:25:10.870Z,11.30
2022-11-04T10:27:42.793Z,11.30
2022-11-04T10:30:17.691Z,11.30
2022-11-04T10:32:58.415Z,11.30
2022-11-04T10:35:34.280Z,11.40
2022-11-04T10:38:18.329Z,11.50
2022-11-04T10:40:50.052Z,11.70
2022-11-04T10:43:27.063Z,11.90
2022-11-04T10:46:25.449Z,11.90
2022-11-04T10:49:01.824Z,12.00
2022-11-04T10:51:31.254Z,12.10
2022-11-04T10:54:03.172Z,12.20
2022-11-04T10:56:40.448Z,12.20
2022-11-04T10:59:24.190Z,12.40
2022-11-04T11:01:54.679Z,12.20
2022-11-04T11:04:29.716Z,12.10
2022-11-04T11:07:01.473Z,12.00
2022-11-04T11:09:31.717Z,12.10
2022-11-04T11:12:04.755Z,12.20
2022-11-04T11:14:39.703Z,12.30
2022-11-04T11:17:26.556Z,12.40
2022-11-04T11:19:58.029Z,12.60
2022-11-04T11:22:36.456Z,12.60
2022-11-04T11:25:27.736Z,12.80
2022-11-04T11:27:59.414Z,12.90
2022-11-04T11:30:32.115Z,13.00
2022-11-04T11:33:04.819Z,13.20
2022-11-04T11:35:41.341Z,13.30
2022-11-04T11:38:20.526Z,13.40
2022-11-04T11:41:10.814Z,13.80
2022-11-04T11:43:44.573Z,14.00
2022-11-04T11:46:22.592Z,13.90
2022-11-04T11:48:54.026Z,14.00
2022-11-04T11:51:31.765Z,13.70
2022-11-04T11:54:24.916Z,13.90
2022-11-04T12:02:47.038Z,14.60
2022-11-04T12:11:35.330Z,14.80
2022-11-04T12:14:07.304Z,15.00
2022-11-04T12:16:45.063Z,14.90
2022-11-04T12:19:47.927Z,14.80
2022-11-04T12:22:26.937Z,14.60
2022-11-04T12:25:05.137Z,14.20
2022-11-04T12:27:41.094Z,14.20
2022-11-04T12:30:14.367Z,14.10
2022-11-04T12:32:57.386Z,14.00
2022-11-04T12:35:44.189Z,13.80
2022-11-04T12:38:32.695Z,13.70
2022-11-04T12:41:34.686Z,13.80
2022-11-04T12:44:10.511Z,14.00
2022-11-04T12:46:46.794Z,14.20
2022-11-04T12:49:44.294Z,14.40
2022-11-04T12:52:34.352Z,14.50
2022-11-04T12:55:37.195Z,14.30
2022-11-04T12:58:21.932Z,13.90
2022-11-04T13:00:59.896Z,13.90
2022-11-04T13:03:34.871Z,13.80
2022-11-04T13:06:07.016Z,13.90
2022-11-04T13:08:42.107Z,14.00
2022-11-04T13:11:23.593Z,14.00
2022-11-04T13:14:02.235Z,13.70
2022-11-04T13:16:35.502Z,13.90
2022-11-04T13:19:04.204Z,13.90
2022-11-04T13:21:39.243Z,13.90
2022-11-04T13:24:20.598Z,13.90
2022-11-04T13:26:48.646Z,13.90
2022-11-04T13:29:21.368Z,13.70
2022-11-04T13:31:56.829Z,13.70
2022-11-04T13:34:37.646Z,13.70
2022-11-04T13:37:18.399Z,13.50
2022-11-04T13:39:49.937Z,13.40
2022-11-04T13:42:54.837Z,13.40
2022-11-04T13:45:22.976Z,13.30
2022-11-04T13:47:55.653Z,13.50
2022-11-04T13:50:35.895Z,13.60
2022-11-04T13:53:06.726Z,13.80
2022-11-04T13:55:35.879Z,14.00
2022-11-04T13:58:06.433Z,14.20
2022-11-04T14:00:35.629Z,14.00
2022-11-04T14:03:41.200Z,13.80
2022-11-04T14:06:11.660Z,14.00
2022-11-04T14:09:42.346Z,14.10
2022-11-04T14:12:35.539Z,13.90
2022-11-04T14:16:05.831Z,14.00
2022-11-04T14:18:37.370Z,14.00
2022-11-04T14:21:10.543Z,14.00
2022-11-04T14:23:41.141Z,14.00
2022-11-04T14:26:12.335Z,13.90
2022-11-04T14:28:44.650Z,13.80
2022-11-04T14:31:17.648Z,13.80
2022-11-04T14:33:55.576Z,13.70
2022-11-04T14:36:35.648Z,13.80
2022-11-04T14:39:17.088Z,13.60
2022-11-04T14:41:59.329Z,13.60
2022-11-04T14:44:33.802Z,13.30
2022-11-04T14:47:15.053Z,13.20
2022-11-04T14:49:48.890Z,13.30
2022-11-04T14:52:24.248Z,13.30
2022-11-04T14:54:58.471Z,13.50
2022-11-04T14:57:26.544Z,13.60
2022-11-04T14:59:54.707Z,13.80
2022-11-04T15:02:26.025Z,13.60
2022-11-04T15:05:00.610Z,13.40
2022-11-04T15:07:36.599Z,13.30
2022-11-04T15:10:21.012Z,13.20
2022-11-04T15:12:52.252Z,13.10
2022-11-04T15:15:34.401Z,13.10
2022-11-04T15:18:07.767Z,13.20
2022-11-04T15:20:46.262Z,13.00
2022-11-04T15:23:18.337Z,13.40
2022-11-04T15:25:50.966Z,13.30
2022-11-04T15:28:22.530Z,13.10
2022-11-04T15:31:20.590Z,12.90
2022-11-04T15:33:52.301Z,12.70
2022-11-04T15:36:24.297Z,12.60
2022-11-04T15:38:57.946Z,12.40
2022-11-04T15:41:46.073Z,12.50
2022-11-04T15:44:20.143Z,12.30
2022-11-04T15:46:52.965Z,12.20
2022-11-04T15:49:28.933Z,12.10
2022-11-04T15:52:02.111Z,12.30
2022-11-04T15:54:34.529Z,12.40
2022-11-04T15:57:07.221Z,12.20
2022-11-04T15:59:38.224Z,12.00
2022-11-04T16:02:18.873Z,12.00
2022-11-04T16:04:49.315Z,11.90
2022-11-04T16:07:25.219Z,11.90
2022-11-04T16:09:55.555Z,11.80
2022-11-04T16:12:30.581Z,11.60
2022-11-04T16:14:59.896Z,11.40
2022-11-04T16:17:29.829Z,11.40
2022-11-04T16:20:02.005Z,11.40
2022-11-04T16:22:33.983Z,11.30
2022-11-04T16:25:04.761Z,11.40
2022-11-04T16:27:37.214Z,11.40
2022-11-04T16:30:17.365Z,11.20
2022-11-04T16:32:48.563Z,11.30
2022-11-04T16:35:21.765Z,11.20
2022-11-04T16:37:51.745Z,11.20
2022-11-04T16:40:21.694Z,11.20
2022-11-04T16:42:50.765Z,11.30
2022-11-04T16:45:26.226Z,11.20
2022-11-04T16:47:55.036Z,11.20
2022-11-04T16:50:24.317Z,11.20
2022-11-04T16:52:54.372Z,11.10
2022-11-04T16:55:23.973Z,11.10
2022-11-04T16:57:59.568Z,11.00
2022-11-04T17:00:32.773Z,11.00
2022-11-04T17:03:01.443Z,11.10
2022-11-04T17:05:29.775Z,11.00
2022-11-04T17:08:04.717Z,11.00
2022-11-04T17:10:35.740Z,10.80
2022-11-04T17:13:03.739Z,10.80
2022-11-04T17:15:31.959Z,10.90
2022-11-04T17:17:59.998Z,10.90
2022-11-04T17:20:28.018Z,10.90
2022-11-04T17:22:55.956Z,11.00
2022-11-04T17:25:27.968Z,10.90
2022-11-04T17:27:56.248Z,10.90
2022-11-04T17:30:24.888Z,10.90
2022-11-04T17:32:52.902Z,10.80
2022-11-04T17:35:20.974Z,10.90
2022-11-04T17:37:52.610Z,10.80
2022-11-04T17:40:23.053Z,10.70
2022-11-04T17:43:12.412Z,10.50
2022-11-04T17:45:41.898Z,10.40
2022-11-04T17:48:11.291Z,10.50
2022-11-04T17:50:42.151Z,10.50
2022-11-04T17:53:10.621Z,10.60
2022-11-04T17:55:41.004Z,10.40
2022-11-04T17:58:10.360Z,10.50
2022-11-04T18:00:38.502Z,10.20
2022-11-04T18:03:08.702Z,10.00
2022-11-04T18:05:37.949Z,9.90
2022-11-04T18:08:06.211Z,10.00
2022-11-04T18:10:34.276Z,9.90
2022-11-04T18:13:01.320Z,9.80
2022-11-04T18:15:30.947Z,9.80
2022-11-04T18:17:59.693Z,9.80
2022-11-04T18:20:27.762Z,9.90
2022-11-04T18:22:55.773Z,10.00
2022-11-04T18:25:23.769Z,10.00
2022-11-04T18:27:51.748Z,10.10
2022-11-04T18:30:19.977Z,10.10
2022-11-04T18:32:49.409Z,10.10
2022-11-04T18:35:17.598Z,9.90
2022-11-04T18:37:47.346Z,9.90
2022-11-04T18:40:16.113Z,9.80
2022-11-04T18:42:44.223Z,9.70
2022-11-04T18:45:12.575Z,9.80
2022-11-04T18:47:40.625Z,9.80
2022-11-04T18:50:11.311Z,9.80
2022-11-04T18:52:40.470Z,9.80
2022-11-04T18:55:11.539Z,9.80
2022-11-04T18:57:39.543Z,9.90
2022-11-04T19:00:14.257Z,10.20
2022-11-04T19:02:44.859Z,10.20
2022-11-04T19:05:14.376Z,10.20
2022-11-04T19:07:44.314Z,10.30
2022-11-04T19:10:14.228Z,10.40
2022-11-04T19:12:59.542Z,10.40
2022-11-04T19:15:28.118Z,10.30
2022-11-04T19:17:56.101Z,10.30
2022-11-04T19:20:25.486Z,10.20
2022-11-04T19:22:53.518Z,10.20
2022-11-04T19:25:21.652Z,10.20
2022-11-04T19:28:11.541Z,10.10
2022-11-04T19:30:38.154Z,10.10
2022-11-04T19:33:06.730Z,10.20
2022-11-04T19:35:36.018Z,10.10
2022-11-04T19:38:04.090Z,10.10
2022-11-04T19:40:37.174Z,10.10
2022-11-04T19:43:10.324Z,10.10
2022-11-04T19:45:43.297Z,10.10
2022-11-04T19:48:11.887Z,10.20
2022-11-04T19:50:43.865Z,10.10
2022-11-04T19:53:12.355Z,10.30
2022-11-04T19:55:40.748Z,10.20
2022-11-04T19:58:08.945Z,10.40
2022-11-04T20:00:37.180Z,10.40
2022-11-04T20:03:05.287Z,10.40
2022-11-04T20:05:38.747Z,10.50
2022-11-04T20:08:10.078Z,10.30
2022-11-04T20:10:40.594Z,10.30
2022-11-04T20:13:32.491Z,10.40
2022-11-04T20:16:00.652Z,10.50
2022-11-04T20:18:28.642Z,10.50
2022-11-04T20:20:56.708Z,10.60
2022-11-04T20:23:26.064Z,10.80
2022-11-04T20:25:54.054Z,10.70
2022-11-04T20:28:22.376Z,10.50
2022-11-04T20:30:50.351Z,10.60
2022-11-04T20:33:18.322Z,10.80
2022-11-04T20:35:46.746Z,10.90
2022-11-04T20:38:14.841Z,10.80
2022-11-04T20:40:44.212Z,10.70
2022-11-04T20:43:12.204Z,10.60
2022-11-04T20:45:40.500Z,10.50
2022-11-04T20:48:09.052Z,10.70
2022-11-04T20:50:37.800Z,10.70
2022-11-04T20:53:05.876Z,10.80
2022-11-04T20:55:35.129Z,11.10
2022-11-04T20:58:04.466Z,11.30
2022-11-04T21:00:33.362Z,11.40
2022-11-04T21:03:01.336Z,11.20
2022-11-04T21:05:29.306Z,11.00
2022-11-04T21:07:57.300Z,10.80
2022-11-04T21:10:25.316Z,10.70
2022-11-04T21:12:53.406Z,10.60
2022-11-04T21:15:40.149Z,10.50
2022-11-04T21:18:09.351Z,10.40
2022-11-04T21:20:39.598Z,10.50
2022-11-04T21:23:07.807Z,10.40
2022-11-04T21:25:41.360Z,10.30
2022-11-04T21:28:10.211Z,10.30
2022-11-04T21:30:42.802Z,10.40
2022-11-04T21:33:10.917Z,10.50
2022-11-04T21:35:40.543Z,10.40
2022-11-04T21:38:12.246Z,10.60
2022-11-04T21:40:40.535Z,10.40
2022-11-04T21:43:08.530Z,10.40
2022-11-04T21:45:37.136Z,10.50
2022-11-04T21:48:07.279Z,10.40
2022-11-04T21:50:35.407Z,10.40
2022-11-04T21:53:03.397Z,10.30
2022-11-04T21:55:31.444Z,10.20
2022-11-04T21:58:00.090Z,10.40
2022-11-04T22:00:28.062Z,10.40
2022-11-04T22:02:56.056Z,10.50
2022-11-04T22:05:25.655Z,10.50
2022-11-04T22:08:11.036Z,10.40
2022-11-04T22:10:39.202Z,10.50
2022-11-04T22:13:07.191Z,10.40
2022-11-04T22:15:54.268Z,10.50
2022-11-04T22:18:22.260Z,10.50
2022-11-04T22:20:51.968Z,10.60
2022-11-04T22:23:20.105Z,10.70
2022-11-04T22:25:50.420Z,10.60
2022-11-04T22:28:20.796Z,10.70
2022-11-04T22:30:48.812Z,10.70
2022-11-04T22:33:16.800Z,10.60
2022-11-04T22:35:46.577Z,10.60
2022-11-04T22:38:16.158Z,10.50
2022-11-04T22:40:44.129Z,10.40
2022-11-04T22:43:12.405Z,10.40
2022-11-04T22:45:40.600Z,10.40
2022-11-04T22:48:10.942Z,10.40
2022-11-04T22:50:38.914Z,10.50
2022-11-04T22:53:06.934Z,10.50
2022-11-04T22:55:36.846Z,10.40
2022-11-04T22:58:04.934Z,10.40
2022-11-04T23:00:32.930Z,10.30
2022-11-04T23:03:01.175Z,10.40
2022-11-04T23:05:30.481Z,10.40
2022-11-04T23:08:00.161Z,10.30
2022-11-04T23:10:45.629Z,10.30
2022-11-04T23:13:32.644Z,10.40
2022-11-04T23:16:18.462Z,10.30
2022-11-04T23:18:50.709Z,10.20
2022-11-04T23:21:39.706Z,10.20
2022-11-04T23:24:26.267Z,10.30
2022-11-04T23:26:54.396Z,10.10
2022-11-04T23:29:41.523Z,10.00
2022-11-04T23:32:09.503Z,9.90
2022-11-04T23:34:55.360Z,9.80
2022-11-04T23:37:23.349Z,9.80
2022-11-04T23:39:51.633Z,9.90
2022-11-04T23:42:20.995Z,9.80
2022-11-04T23:45:10.920Z,9.90
2022-11-04T23:47:59.279Z,9.90
2022-11-04T23:50:51.004Z,9.80
2022-11-04T23:53:39.116Z,9.80
2022-11-04T23:56:28.790Z,9.70
2022-11-04T23:59:14.692Z,9.60
